sensor_id;sensor_type;location;lat;lon;timestamp;pressure;altitude;pressure_sealevel;temperature;humidity
9935;BME280;5006;41.828;23.478;2022-12-07T07:20:44;90273.56;;;4.45;100.00
9935;BME280;5006;41.828;23.478;2022-12-07T07:21:49;90288.28;;;4.43;100.00
9935;BME280;5006;41.828;23.478;2022-12-07T07:22:55;90281.72;;;4.56;100.00
9935;BME280;5006;41.828;23.478;2022-12-07T07:24:00;90280.13;;;4.70;100.00
9935;BME280;5006;41.828;23.478;2022-12-07T07:25:06;90280.22;;;4.77;100.00
9935;BME280;5006;41.828;23.478;2022-12-07T07:26:11;90278.31;;;4.97;100.00
9935;BME280;5006;41.828;23.478;2022-12-07T07:27:16;90283.47;;;5.09;100.00
9935;BME280;5006;41.828;23.478;2022-12-07T07:28:21;90277.19;;;4.98;100.00
9935;BME280;5006;41.828;23.478;2022-12-07T07:29:27;90272.06;;;5.08;100.00
9935;BME280;5006;41.828;23.478;2022-12-07T07:30:32;90269.53;;;5.15;100.00
9935;BME280;5006;41.828;23.478;2022-12-07T07:31:37;90276.69;;;5.11;100.00
9935;BME280;5006;41.828;23.478;2022-12-07T07:32:43;90273.38;;;5.18;100.00
9935;BME280;5006;41.828;23.478;2022-12-07T07:33:47;90270.78;;;5.21;100.00
9935;BME280;5006;41.828;23.478;2022-12-07T07:34:53;90274.50;;;5.17;100.00
9935;BME280;5006;41.828;23.478;2022-12-07T07:35:59;90270.47;;;5.04;100.00
9935;BME280;5006;41.828;23.478;2022-12-07T07:37:05;90282.50;;;4.98;100.00
9935;BME280;5006;41.828;23.478;2022-12-07T07:38:10;90272.16;;;5.12;100.00
9935;BME280;5006;41.828;23.478;2022-12-07T07:39:16;90274.31;;;5.06;100.00
9935;BME280;5006;41.828;23.478;2022-12-07T07:40:21;90280.06;;;5.08;100.00
9935;BME280;5006;41.828;23.478;2022-12-07T07:41:28;90279.88;;;5.20;100.00
9935;BME280;5006;41.828;23.478;2022-12-07T07:42:33;90288.09;;;5.34;100.00
9935;BME280;5006;41.828;23.478;2022-12-07T07:43:39;90285.28;;;5.27;100.00
9935;BME280;5006;41.828;23.478;2022-12-07T07:44:45;90286.66;;;5.18;100.00
9935;BME280;5006;41.828;23.478;2022-12-07T07:45:51;90286.72;;;5.21;100.00
9935;BME280;5006;41.828;23.478;2022-12-07T07:46:56;90293.09;;;5.17;100.00
9935;BME280;5006;41.828;23.478;2022-12-07T07:48:01;90288.31;;;5.26;100.00
9935;BME280;5006;41.828;23.478;2022-12-07T07:49:08;90293.22;;;5.24;100.00
9935;BME280;5006;41.828;23.478;2022-12-07T07:50:15;90293.66;;;5.26;100.00
9935;BME280;5006;41.828;23.478;2022-12-07T07:51:21;90288.97;;;5.19;100.00
9935;BME280;5006;41.828;23.478;2022-12-07T07:52:27;90288.75;;;5.28;100.00
9935;BME280;5006;41.828;23.478;2022-12-07T07:53:33;90287.13;;;5.23;100.00
9935;BME280;5006;41.828;23.478;2022-12-07T07:54:39;90296.72;;;5.05;100.00
9935;BME280;5006;41.828;23.478;2022-12-07T07:55:50;90295.75;;;5.17;100.00
9935;BME280;5006;41.828;23.478;2022-12-07T07:56:55;90292.88;;;5.25;100.00
9935;BME280;5006;41.828;23.478;2022-12-07T07:58:01;90295.91;;;5.24;100.00
9935;BME280;5006;41.828;23.478;2022-12-07T07:59:07;90293.16;;;5.20;100.00
9935;BME280;5006;41.828;23.478;2022-12-07T08:00:14;90295.88;;;5.46;100.00
9935;BME280;5006;41.828;23.478;2022-12-07T08:01:20;90289.69;;;5.39;100.00
9935;BME280;5006;41.828;23.478;2022-12-07T08:02:24;90289.78;;;5.23;100.00
9935;BME280;5006;41.828;23.478;2022-12-07T08:03:30;90300.13;;;5.28;100.00
9935;BME280;5006;41.828;23.478;2022-12-07T08:04:35;90294.53;;;5.33;100.00
9935;BME280;5006;41.828;23.478;2022-12-07T08:05:41;90299.38;;;5.28;100.00
9935;BME280;5006;41.828;23.478;2022-12-07T08:06:48;90302.59;;;5.40;100.00
9935;BME280;5006;41.828;23.478;2022-12-07T08:07:54;90295.69;;;5.36;100.00
9935;BME280;5006;41.828;23.478;2022-12-07T08:08:59;90284.88;;;5.48;100.00
9935;BME280;5006;41.828;23.478;2022-12-07T08:10:06;90293.63;;;5.48;100.00
9935;BME280;5006;41.828;23.478;2022-12-07T08:11:11;90287.34;;;5.60;100.00
9935;BME280;5006;41.828;23.478;2022-12-07T08:12:17;90288.22;;;5.67;100.00
9935;BME280;5006;41.828;23.478;2022-12-07T08:13:22;90295.69;;;5.58;100.00
9935;BME280;5006;41.828;23.478;2022-12-07T08:14:28;90285.22;;;5.69;100.00
9935;BME280;5006;41.828;23.478;2022-12-07T08:15:36;90284.34;;;5.61;100.00
9935;BME280;5006;41.828;23.478;2022-12-07T08:16:41;90287.88;;;5.69;100.00
9935;BME280;5006;41.828;23.478;2022-12-07T08:17:47;90287.34;;;5.60;100.00
9935;BME280;5006;41.828;23.478;2022-12-07T08:18:53;90283.34;;;5.47;100.00
9935;BME280;5006;41.828;23.478;2022-12-07T08:19:59;90286.06;;;5.50;100.00
9935;BME280;5006;41.828;23.478;2022-12-07T08:21:05;90291.50;;;5.80;100.00
9935;BME280;5006;41.828;23.478;2022-12-07T08:22:12;90292.88;;;5.74;100.00
9935;BME280;5006;41.828;23.478;2022-12-07T08:23:18;90290.53;;;5.69;100.00
9935;BME280;5006;41.828;23.478;2022-12-07T08:24:24;90288.63;;;5.92;100.00
9935;BME280;5006;41.828;23.478;2022-12-07T08:25:30;90289.41;;;5.70;100.00
9935;BME280;5006;41.828;23.478;2022-12-07T08:26:35;90291.78;;;5.75;100.00
9935;BME280;5006;41.828;23.478;2022-12-07T08:27:41;90299.94;;;5.85;100.00
9935;BME280;5006;41.828;23.478;2022-12-07T08:28:46;90295.84;;;5.91;100.00
9935;BME280;5006;41.828;23.478;2022-12-07T08:29:52;90292.09;;;6.22;100.00
9935;BME280;5006;41.828;23.478;2022-12-07T08:30:59;90287.38;;;6.08;100.00
9935;BME280;5006;41.828;23.478;2022-12-07T08:32:05;90290.16;;;5.93;100.00
9935;BME280;5006;41.828;23.478;2022-12-07T08:33:11;90288.63;;;6.18;100.00
9935;BME280;5006;41.828;23.478;2022-12-07T08:34:17;90289.41;;;6.47;100.00
9935;BME280;5006;41.828;23.478;2022-12-07T08:35:23;90285.69;;;6.26;100.00
9935;BME280;5006;41.828;23.478;2022-12-07T08:36:29;90288.41;;;6.30;100.00
9935;BME280;5006;41.828;23.478;2022-12-07T08:37:36;90285.06;;;6.36;100.00
9935;BME280;5006;41.828;23.478;2022-12-07T08:38:43;90282.91;;;6.45;100.00
9935;BME280;5006;41.828;23.478;2022-12-07T08:39:47;90287.31;;;6.63;100.00
9935;BME280;5006;41.828;23.478;2022-12-07T08:40:54;90283.56;;;6.68;100.00
9935;BME280;5006;41.828;23.478;2022-12-07T08:42:00;90286.28;;;6.71;100.00
9935;BME280;5006;41.828;23.478;2022-12-07T08:43:06;90283.00;;;6.85;100.00
9935;BME280;5006;41.828;23.478;2022-12-07T08:44:11;90285.75;;;6.59;100.00
9935;BME280;5006;41.828;23.478;2022-12-07T08:45:17;90284.56;;;6.89;100.00
9935;BME280;5006;41.828;23.478;2022-12-07T08:46:25;90282.88;;;7.07;100.00
9935;BME280;5006;41.828;23.478;2022-12-07T08:47:32;90284.09;;;6.80;100.00
9935;BME280;5006;41.828;23.478;2022-12-07T08:48:43;90277.44;;;7.00;100.00
9935;BME280;5006;41.828;23.478;2022-12-07T08:49:49;90277.34;;;7.26;100.00
9935;BME280;5006;41.828;23.478;2022-12-07T08:50:57;90268.13;;;7.20;100.00
9935;BME280;5006;41.828;23.478;2022-12-07T08:52:04;90278.06;;;7.23;100.00
9935;BME280;5006;41.828;23.478;2022-12-07T08:53:12;90275.59;;;7.04;100.00
9935;BME280;5006;41.828;23.478;2022-12-07T08:54:19;90278.28;;;7.04;100.00
9935;BME280;5006;41.828;23.478;2022-12-07T08:55:25;90276.44;;;7.12;100.00
9935;BME280;5006;41.828;23.478;2022-12-07T08:56:31;90282.88;;;7.07;100.00
9935;BME280;5006;41.828;23.478;2022-12-07T08:57:37;90273.59;;;7.34;100.00
9935;BME280;5006;41.828;23.478;2022-12-07T08:58:44;90270.00;;;7.60;100.00
9935;BME280;5006;41.828;23.478;2022-12-07T08:59:50;90280.47;;;7.35;100.00
9935;BME280;5006;41.828;23.478;2022-12-07T09:00:55;90280.28;;;7.58;100.00
9935;BME280;5006;41.828;23.478;2022-12-07T09:02:01;90275.59;;;8.42;100.00
9935;BME280;5006;41.828;23.478;2022-12-07T09:03:06;90280.63;;;8.60;100.00
9935;BME280;5006;41.828;23.478;2022-12-07T09:04:11;90266.19;;;8.72;100.00
9935;BME280;5006;41.828;23.478;2022-12-07T09:05:17;90269.00;;;9.07;100.00
9935;BME280;5006;41.828;23.478;2022-12-07T09:06:22;90263.13;;;8.70;100.00
9935;BME280;5006;41.828;23.478;2022-12-07T09:07:30;90256.41;;;8.29;100.00
9935;BME280;5006;41.828;23.478;2022-12-07T09:08:41;90265.38;;;8.68;100.00
9935;BME280;5006;41.828;23.478;2022-12-07T09:09:47;90262.19;;;9.41;100.00
9935;BME280;5006;41.828;23.478;2022-12-07T09:10:52;90262.94;;;9.31;100.00
9935;BME280;5006;41.828;23.478;2022-12-07T09:11:58;90262.59;;;9.50;100.00
9935;BME280;5006;41.828;23.478;2022-12-07T09:13:04;90255.28;;;9.26;100.00
9935;BME280;5006;41.828;23.478;2022-12-07T09:14:09;90259.13;;;9.39;100.00
9935;BME280;5006;41.828;23.478;2022-12-07T09:15:16;90261.44;;;9.47;100.00
9935;BME280;5006;41.828;23.478;2022-12-07T09:16:22;90264.50;;;9.56;100.00
9935;BME280;5006;41.828;23.478;2022-12-07T09:17:26;90257.63;;;9.80;100.00
9935;BME280;5006;41.828;23.478;2022-12-07T09:18:32;90254.97;;;10.32;100.00
9935;BME280;5006;41.828;23.478;2022-12-07T09:19:37;90255.75;;;9.98;100.00
9935;BME280;5006;41.828;23.478;2022-12-07T09:20:46;90256.47;;;9.67;100.00
9935;BME280;5006;41.828;23.478;2022-12-07T09:21:52;90247.28;;;9.96;100.00
9935;BME280;5006;41.828;23.478;2022-12-07T09:22:57;90246.56;;;9.67;100.00
9935;BME280;5006;41.828;23.478;2022-12-07T09:24:05;90246.56;;;10.13;100.00
9935;BME280;5006;41.828;23.478;2022-12-07T09:25:11;90244.63;;;9.71;100.00
9935;BME280;5006;41.828;23.478;2022-12-07T09:26:17;90248.88;;;10.07;100.00
9935;BME280;5006;41.828;23.478;2022-12-07T09:27:23;90241.94;;;9.54;100.00
9935;BME280;5006;41.828;23.478;2022-12-07T09:28:28;90248.78;;;9.27;100.00
9935;BME280;5006;41.828;23.478;2022-12-07T09:29:35;90239.59;;;9.14;100.00
9935;BME280;5006;41.828;23.478;2022-12-07T09:30:45;90241.94;;;9.43;100.00
9935;BME280;5006;41.828;23.478;2022-12-07T09:31:52;90242.31;;;9.45;100.00
9935;BME280;5006;41.828;23.478;2022-12-07T09:32:58;90241.09;;;9.11;100.00
9935;BME280;5006;41.828;23.478;2022-12-07T09:34:04;90237.38;;;9.82;100.00
9935;BME280;5006;41.828;23.478;2022-12-07T09:35:09;90233.47;;;9.17;100.00
9935;BME280;5006;41.828;23.478;2022-12-07T09:36:15;90234.66;;;9.23;100.00
9935;BME280;5006;41.828;23.478;2022-12-07T09:37:21;90232.00;;;9.37;100.00
9935;BME280;5006;41.828;23.478;2022-12-07T09:38:27;90228.00;;;8.75;100.00
9935;BME280;5006;41.828;23.478;2022-12-07T09:39:37;90227.28;;;8.92;100.00
9935;BME280;5006;41.828;23.478;2022-12-07T09:40:43;90225.88;;;9.40;100.00
9935;BME280;5006;41.828;23.478;2022-12-07T09:41:49;90225.41;;;9.03;100.00
9935;BME280;5006;41.828;23.478;2022-12-07T09:42:55;90219.75;;;9.22;100.00
9935;BME280;5006;41.828;23.478;2022-12-07T09:44:04;90223.97;;;9.26;100.00
9935;BME280;5006;41.828;23.478;2022-12-07T09:45:15;90221.66;;;9.25;100.00
9935;BME280;5006;41.828;23.478;2022-12-07T09:46:22;90223.19;;;9.33;100.00
9935;BME280;5006;41.828;23.478;2022-12-07T09:47:27;90222.34;;;8.94;100.00
9935;BME280;5006;41.828;23.478;2022-12-07T09:48:36;90231.09;;;8.91;100.00
9935;BME280;5006;41.828;23.478;2022-12-07T09:49:43;90225.38;;;8.89;100.00
9935;BME280;5006;41.828;23.478;2022-12-07T09:50:50;90230.34;;;8.87;100.00
9935;BME280;5006;41.828;23.478;2022-12-07T09:52:02;90225.25;;;8.54;100.00
9935;BME280;5006;41.828;23.478;2022-12-07T09:53:09;90214.13;;;8.42;100.00
9935;BME280;5006;41.828;23.478;2022-12-07T09:54:18;90210.69;;;8.38;100.00
9935;BME280;5006;41.828;23.478;2022-12-07T09:55:29;90217.22;;;8.51;100.00
9935;BME280;5006;41.828;23.478;2022-12-07T09:56:34;90216.88;;;8.59;100.00
9935;BME280;5006;41.828;23.478;2022-12-07T09:57:41;90215.09;;;9.05;100.00
9935;BME280;5006;41.828;23.478;2022-12-07T09:58:48;90223.13;;;9.08;100.00
9935;BME280;5006;41.828;23.478;2022-12-07T09:59:54;90223.47;;;8.89;100.00
9935;BME280;5006;41.828;23.478;2022-12-07T10:01:05;90228.44;;;8.84;100.00
9935;BME280;5006;41.828;23.478;2022-12-07T10:02:24;90221.56;;;8.93;100.00
9935;BME280;5006;41.828;23.478;2022-12-07T10:03:31;90220.84;;;9.14;100.00
9935;BME280;5006;41.828;23.478;2022-12-07T10:04:37;90217.38;;;8.92;100.00
9935;BME280;5006;41.828;23.478;2022-12-07T10:05:46;90217.44;;;9.13;100.00
9935;BME280;5006;41.828;23.478;2022-12-07T10:06:53;90214.00;;;9.20;100.00
9935;BME280;5006;41.828;23.478;2022-12-07T10:07:59;90212.78;;;8.96;100.00
9935;BME280;5006;41.828;23.478;2022-12-07T10:09:09;90206.78;;;9.59;100.00
9935;BME280;5006;41.828;23.478;2022-12-07T10:10:18;90201.00;;;9.88;100.00
9935;BME280;5006;41.828;23.478;2022-12-07T10:11:27;90209.03;;;9.43;100.00
9935;BME280;5006;41.828;23.478;2022-12-07T10:12:53;90200.66;;;9.58;100.00
9935;BME280;5006;41.828;23.478;2022-12-07T10:14:11;90207.91;;;9.51;100.00
9935;BME280;5006;41.828;23.478;2022-12-07T10:15:18;90209.03;;;9.43;100.00
9935;BME280;5006;41.828;23.478;2022-12-07T10:16:37;90209.06;;;9.85;100.00
9935;BME280;5006;41.828;23.478;2022-12-07T10:17:49;90199.09;;;9.29;100.00
9935;BME280;5006;41.828;23.478;2022-12-07T10:18:54;90207.94;;;9.58;100.00
9935;BME280;5006;41.828;23.478;2022-12-07T10:20:22;90208.25;;;9.32;100.00
9935;BME280;5006;41.828;23.478;2022-12-07T10:21:28;90206.00;;;9.65;100.00
9935;BME280;5006;41.828;23.478;2022-12-07T10:22:34;90202.16;;;9.87;100.00
9935;BME280;5006;41.828;23.478;2022-12-07T10:23:40;90199.50;;;9.56;100.00
9935;BME280;5006;41.828;23.478;2022-12-07T10:24:46;90212.47;;;9.36;100.00
9935;BME280;5006;41.828;23.478;2022-12-07T10:25:52;90203.72;;;9.39;100.00
9935;BME280;5006;41.828;23.478;2022-12-07T10:27:01;90204.47;;;9.47;100.00
9935;BME280;5006;41.828;23.478;2022-12-07T10:28:13;90210.59;;;9.61;100.00
9935;BME280;5006;41.828;23.478;2022-12-07T10:29:21;90212.13;;;9.73;100.00
9935;BME280;5006;41.828;23.478;2022-12-07T10:30:28;90206.00;;;10.07;100.00
9935;BME280;5006;41.828;23.478;2022-12-07T10:31:38;90208.69;;;9.76;100.00
9935;BME280;5006;41.828;23.478;2022-12-07T10:32:44;90210.59;;;9.72;100.00
9935;BME280;5006;41.828;23.478;2022-12-07T10:33:52;90200.63;;;9.41;100.00
9935;BME280;5006;41.828;23.478;2022-12-07T10:35:20;90207.13;;;9.40;100.00
9935;BME280;5006;41.828;23.478;2022-12-07T10:36:33;90205.41;;;8.58;100.00
9935;BME280;5006;41.828;23.478;2022-12-07T10:37:41;90209.72;;;8.84;100.00
9935;BME280;5006;41.828;23.478;2022-12-07T10:38:48;90205.19;;;9.16;100.00
9935;BME280;5006;41.828;23.478;2022-12-07T10:39:55;90203.28;;;9.23;100.00
9935;BME280;5006;41.828;23.478;2022-12-07T10:41:06;90202.50;;;9.16;100.00
9935;BME280;5006;41.828;23.478;2022-12-07T10:42:20;90199.47;;;9.17;100.00
9935;BME280;5006;41.828;23.478;2022-12-07T10:43:25;90192.97;;;9.25;100.00
9935;BME280;5006;41.828;23.478;2022-12-07T10:44:32;90193.69;;;8.94;100.00
9935;BME280;5006;41.828;23.478;2022-12-07T10:45:59;90192.97;;;9.18;100.00
9935;BME280;5006;41.828;23.478;2022-12-07T10:47:22;90193.00;;;9.71;100.00
9935;BME280;5006;41.828;23.478;2022-12-07T10:48:34;90201.03;;;9.36;100.00
9935;BME280;5006;41.828;23.478;2022-12-07T10:51:38;90197.59;;;9.46;100.00
9935;BME280;5006;41.828;23.478;2022-12-07T10:53:09;90195.28;;;9.41;100.00
9935;BME280;5006;41.828;23.478;2022-12-07T10:54:26;90191.47;;;9.45;100.00
9935;BME280;5006;41.828;23.478;2022-12-07T10:55:47;90197.53;;;9.18;100.00
9935;BME280;5006;41.828;23.478;2022-12-07T10:57:05;90200.22;;;9.07;100.00
9935;BME280;5006;41.828;23.478;2022-12-07T10:58:27;90191.88;;;9.58;100.00
9935;BME280;5006;41.828;23.478;2022-12-07T11:00:00;90189.16;;;9.47;100.00
9935;BME280;5006;41.828;23.478;2022-12-07T11:01:13;90190.69;;;9.45;100.00
9935;BME280;5006;41.828;23.478;2022-12-07T11:02:30;90197.19;;;9.30;100.00
9935;BME280;5006;41.828;23.478;2022-12-07T11:05:14;90191.03;;;9.05;100.00
9935;BME280;5006;41.828;23.478;2022-12-07T11:06:27;90206.75;;;9.38;100.00
9935;BME280;5006;41.828;23.478;2022-12-07T11:07:44;90205.22;;;9.75;100.00
9935;BME280;5006;41.828;23.478;2022-12-07T11:09:00;90188.78;;;9.77;100.00
9935;BME280;5006;41.828;23.478;2022-12-07T11:10:13;90193.34;;;10.01;100.00
9935;BME280;5006;41.828;23.478;2022-12-07T11:11:25;90192.94;;;10.20;100.00
9935;BME280;5006;41.828;23.478;2022-12-07T11:12:47;90191.75;;;10.38;100.00
9935;BME280;5006;41.828;23.478;2022-12-07T11:14:05;90190.22;;;10.41;100.00
9935;BME280;5006;41.828;23.478;2022-12-07T11:15:19;90189.28;;;10.89;100.00
9935;BME280;5006;41.828;23.478;2022-12-07T11:16:34;90179.75;;;10.77;100.00
9935;BME280;5006;41.828;23.478;2022-12-07T11:17:48;90179.16;;;10.32;100.00
9935;BME280;5006;41.828;23.478;2022-12-07T11:19:20;90178.97;;;10.80;100.00
9935;BME280;5006;41.828;23.478;2022-12-07T11:20:39;90174.53;;;11.21;100.00
9935;BME280;5006;41.828;23.478;2022-12-07T11:21:52;90174.97;;;11.09;100.00
9935;BME280;5006;41.828;23.478;2022-12-07T11:23:10;90174.16;;;11.16;100.00
9935;BME280;5006;41.828;23.478;2022-12-07T11:24:22;90165.50;;;11.52;98.85
9935;BME280;5006;41.828;23.478;2022-12-07T11:25:32;90171.63;;;11.56;96.99
9935;BME280;5006;41.828;23.478;2022-12-07T11:26:58;90155.25;;;11.91;95.02
9935;BME280;5006;41.828;23.478;2022-12-07T11:28:15;90155.13;;;10.96;94.88
9935;BME280;5006;41.828;23.478;2022-12-07T11:31:10;90145.91;;;11.62;92.55
9935;BME280;5006;41.828;23.478;2022-12-07T11:32:24;90142.13;;;11.49;93.40
9935;BME280;5006;41.828;23.478;2022-12-07T11:33:39;90141.25;;;11.66;94.58
9935;BME280;5006;41.828;23.478;2022-12-07T11:34:56;90142.34;;;11.72;93.09
9935;BME280;5006;41.828;23.478;2022-12-07T11:36:14;90149.38;;;12.03;92.51
9935;BME280;5006;41.828;23.478;2022-12-07T11:37:25;90148.97;;;12.42;90.07
9935;BME280;5006;41.828;23.478;2022-12-07T11:38:40;90142.16;;;12.34;88.93
9935;BME280;5006;41.828;23.478;2022-12-07T11:39:50;90143.03;;;11.83;89.21
9935;BME280;5006;41.828;23.478;2022-12-07T11:41:00;90138.47;;;11.77;89.19
9935;BME280;5006;41.828;23.478;2022-12-07T11:42:21;90133.78;;;11.33;91.24
9935;BME280;5006;41.828;23.478;2022-12-07T11:43:31;90140.63;;;10.87;92.67
9935;BME280;5006;41.828;23.478;2022-12-07T11:44:48;90137.28;;;11.27;92.44
9935;BME280;5006;41.828;23.478;2022-12-07T11:45:59;90136.34;;;11.54;92.10
9935;BME280;5006;41.828;23.478;2022-12-07T11:47:09;90137.75;;;12.13;90.06
9935;BME280;5006;41.828;23.478;2022-12-07T11:48:21;90125.69;;;12.28;88.46
9935;BME280;5006;41.828;23.478;2022-12-07T11:49:40;90136.16;;;11.79;89.68
9935;BME280;5006;41.828;23.478;2022-12-07T11:50:50;90130.16;;;11.64;90.39
9935;BME280;5006;41.828;23.478;2022-12-07T11:51:59;90134.63;;;11.23;91.24
9935;BME280;5006;41.828;23.478;2022-12-07T11:53:14;90137.78;;;11.69;89.96
9935;BME280;5006;41.828;23.478;2022-12-07T11:54:24;90127.84;;;11.08;91.13
9935;BME280;5006;41.828;23.478;2022-12-07T11:55:42;90128.53;;;11.70;90.71
9935;BME280;5006;41.828;23.478;2022-12-07T11:56:50;90129.44;;;11.53;90.00
9935;BME280;5006;41.828;23.478;2022-12-07T11:58:03;90141.75;;;10.93;91.77
9935;BME280;5006;41.828;23.478;2022-12-07T11:59:12;90131.06;;;11.40;91.90
9935;BME280;5006;41.828;23.478;2022-12-07T12:00:24;90130.19;;;11.57;90.60
9935;BME280;5006;41.828;23.478;2022-12-07T12:01:38;90124.44;;;11.01;92.04
9935;BME280;5006;41.828;23.478;2022-12-07T12:02:50;90128.00;;;10.84;92.64
9935;BME280;5006;41.828;23.478;2022-12-07T12:04:02;90125.84;;;10.55;94.61
9935;BME280;5006;41.828;23.478;2022-12-07T12:05:17;90120.81;;;10.67;96.05
9935;BME280;5006;41.828;23.478;2022-12-07T12:06:25;90130.09;;;10.42;95.20
9935;BME280;5006;41.828;23.478;2022-12-07T12:07:31;90122.75;;;10.60;95.07
9935;BME280;5006;41.828;23.478;2022-12-07T12:08:41;90120.03;;;10.67;94.84
9935;BME280;5006;41.828;23.478;2022-12-07T12:09:51;90125.41;;;10.67;95.09
9935;BME280;5006;41.828;23.478;2022-12-07T12:11:02;90115.59;;;10.36;96.16
9935;BME280;5006;41.828;23.478;2022-12-07T12:12:23;90118.16;;;10.57;96.68
9935;BME280;5006;41.828;23.478;2022-12-07T12:14:10;90112.06;;;10.56;96.17
9935;BME280;5006;41.828;23.478;2022-12-07T12:15:33;90112.94;;;10.29;97.40
9935;BME280;5006;41.828;23.478;2022-12-07T12:17:02;90109.50;;;10.25;98.54
9935;BME280;5006;41.828;23.478;2022-12-07T12:18:32;90117.59;;;10.04;100.00
9935;BME280;5006;41.828;23.478;2022-12-07T12:19:54;90103.81;;;9.95;100.00
9935;BME280;5006;41.828;23.478;2022-12-07T12:21:04;90105.34;;;10.06;100.00
9935;BME280;5006;41.828;23.478;2022-12-07T12:22:14;90112.56;;;10.20;100.00
9935;BME280;5006;41.828;23.478;2022-12-07T12:23:22;90109.19;;;10.02;100.00
9935;BME280;5006;41.828;23.478;2022-12-07T12:24:31;90104.97;;;10.01;100.00
9935;BME280;5006;41.828;23.478;2022-12-07T12:25:43;90107.69;;;9.80;100.00
9935;BME280;5006;41.828;23.478;2022-12-07T12:26:51;90105.72;;;10.12;100.00
9935;BME280;5006;41.828;23.478;2022-12-07T12:27:59;90109.16;;;9.95;100.00
9935;BME280;5006;41.828;23.478;2022-12-07T12:29:06;90106.59;;;9.60;100.00
9935;BME280;5006;41.828;23.478;2022-12-07T12:30:35;90102.69;;;9.82;100.00
9935;BME280;5006;41.828;23.478;2022-12-07T12:31:41;90101.22;;;9.53;100.00
9935;BME280;5006;41.828;23.478;2022-12-07T12:32:47;90106.94;;;9.51;100.00
9935;BME280;5006;41.828;23.478;2022-12-07T12:33:55;90100.81;;;9.65;100.00
9935;BME280;5006;41.828;23.478;2022-12-07T12:36:26;90095.13;;;9.38;100.00
9935;BME280;5006;41.828;23.478;2022-12-07T12:37:48;90104.66;;;9.57;100.00
9935;BME280;5006;41.828;23.478;2022-12-07T12:39:09;90099.31;;;9.64;100.00
9935;BME280;5006;41.828;23.478;2022-12-07T12:41:55;90095.09;;;9.66;100.00
9935;BME280;5006;41.828;23.478;2022-12-07T12:43:48;90100.84;;;9.54;100.00
9935;BME280;5006;41.828;23.478;2022-12-07T12:45:18;90102.00;;;9.25;100.00
9935;BME280;5006;41.828;23.478;2022-12-07T12:46:46;90094.38;;;9.13;100.00
9935;BME280;5006;41.828;23.478;2022-12-07T12:47:57;90099.72;;;9.17;100.00
9935;BME280;5006;41.828;23.478;2022-12-07T12:49:30;90092.84;;;9.37;100.00
9935;BME280;5006;41.828;23.478;2022-12-07T12:50:38;90100.47;;;9.38;100.00
9935;BME280;5006;41.828;23.478;2022-12-07T12:51:45;90097.78;;;9.56;100.00
9935;BME280;5006;41.828;23.478;2022-12-07T12:52:57;90097.78;;;9.42;100.00
9935;BME280;5006;41.828;23.478;2022-12-07T12:54:04;90095.47;;;9.65;100.00
9935;BME280;5006;41.828;23.478;2022-12-07T12:55:13;90092.75;;;9.86;100.00
9935;BME280;5006;41.828;23.478;2022-12-07T12:56:35;90094.38;;;9.38;100.00
9935;BME280;5006;41.828;23.478;2022-12-07T12:57:46;90093.19;;;9.49;100.00
9935;BME280;5006;41.828;23.478;2022-12-07T12:59:24;90090.53;;;9.56;100.00
9935;BME280;5006;41.828;23.478;2022-12-07T13:00:30;90093.97;;;9.46;100.00
9935;BME280;5006;41.828;23.478;2022-12-07T13:01:43;90088.22;;;9.55;100.00
9935;BME280;5006;41.828;23.478;2022-12-07T13:02:52;90090.84;;;9.83;100.00
9935;BME280;5006;41.828;23.478;2022-12-07T13:03:58;90098.13;;;9.82;100.00
9935;BME280;5006;41.828;23.478;2022-12-07T13:05:17;90085.16;;;9.60;100.00
9935;BME280;5006;41.828;23.478;2022-12-07T13:06:34;90088.22;;;9.51;100.00
9935;BME280;5006;41.828;23.478;2022-12-07T13:07:58;90089.31;;;9.85;100.00
9935;BME280;5006;41.828;23.478;2022-12-07T13:09:18;90084.28;;;10.08;100.00
9935;BME280;5006;41.828;23.478;2022-12-07T13:10:34;90090.44;;;9.91;100.00
9935;BME280;5006;41.828;23.478;2022-12-07T13:11:44;90093.16;;;9.74;100.00
9935;BME280;5006;41.828;23.478;2022-12-07T13:12:57;90088.50;;;10.13;100.00
9935;BME280;5006;41.828;23.478;2022-12-07T13:14:51;90087.38;;;9.93;100.00
9935;BME280;5006;41.828;23.478;2022-12-07T13:18:00;90083.94;;;9.89;100.00
9935;BME280;5006;41.828;23.478;2022-12-07T13:22:50;90072.84;;;10.04;100.00
9935;BME280;5006;41.828;23.478;2022-12-07T13:23:58;90072.84;;;9.87;100.00
9935;BME280;5006;41.828;23.478;2022-12-07T13:25:08;90073.66;;;9.70;100.00
9935;BME280;5006;41.828;23.478;2022-12-07T13:26:17;90069.06;;;9.70;100.00
9935;BME280;5006;41.828;23.478;2022-12-07T13:27:24;90075.97;;;9.68;100.00
9935;BME280;5006;41.828;23.478;2022-12-07T13:28:35;90067.94;;;9.68;100.00
9935;BME280;5006;41.828;23.478;2022-12-07T13:29:43;90062.56;;;9.71;100.00
9935;BME280;5006;41.828;23.478;2022-12-07T13:31:04;90067.97;;;9.57;100.00
9935;BME280;5006;41.828;23.478;2022-12-07T13:32:23;90068.28;;;9.70;100.00
9935;BME280;5006;41.828;23.478;2022-12-07T13:33:30;90059.84;;;9.89;100.00
9935;BME280;5006;41.828;23.478;2022-12-07T13:34:41;90064.81;;;9.87;100.00
9935;BME280;5006;41.828;23.478;2022-12-07T13:35:47;90065.97;;;9.82;100.00
9935;BME280;5006;41.828;23.478;2022-12-07T13:36:57;90060.25;;;9.80;100.00
9935;BME280;5006;41.828;23.478;2022-12-07T13:38:05;90061.03;;;9.77;100.00
9935;BME280;5006;41.828;23.478;2022-12-07T13:39:17;90062.16;;;9.83;100.00
9935;BME280;5006;41.828;23.478;2022-12-07T13:40:26;90067.50;;;9.80;100.00
9935;BME280;5006;41.828;23.478;2022-12-07T13:41:31;90065.28;;;9.54;100.00
9935;BME280;5006;41.828;23.478;2022-12-07T13:42:37;90066.03;;;9.65;100.00
9935;BME280;5006;41.828;23.478;2022-12-07T13:43:46;90069.53;;;9.34;100.00
9935;BME280;5006;41.828;23.478;2022-12-07T13:44:53;90064.19;;;9.16;100.00
9935;BME280;5006;41.828;23.478;2022-12-07T13:45:59;90069.16;;;9.07;100.00
9935;BME280;5006;41.828;23.478;2022-12-07T13:47:07;90071.06;;;9.35;100.00
9935;BME280;5006;41.828;23.478;2022-12-07T13:48:20;90071.81;;;9.07;100.00
9935;BME280;5006;41.828;23.478;2022-12-07T13:49:30;90069.16;;;9.11;100.00
9935;BME280;5006;41.828;23.478;2022-12-07T13:50:35;90071.47;;;9.09;100.00
9935;BME280;5006;41.828;23.478;2022-12-07T13:51:40;90079.09;;;9.14;100.00